sensor_id;sensor_type;location;lat;lon;timestamp;P1;durP1;ratioP1;P2;durP2;ratioP2
21677;SDS011;11000;50.360;7.582;2023-05-20T00:00:38;2.67;;;1.93;;
21677;SDS011;11000;50.360;7.582;2023-05-20T00:02:59;4.03;;;2.37;;
21677;SDS011;11000;50.360;7.582;2023-05-20T00:05:20;3.03;;;1.53;;
21677;SDS011;11000;50.360;7.582;2023-05-20T00:07:43;1.93;;;1.63;;
21677;SDS011;11000;50.360;7.582;2023-05-20T00:10:03;3.23;;;1.40;;
21677;SDS011;11000;50.360;7.582;2023-05-20T00:12:24;3.13;;;1.73;;
21677;SDS011;11000;50.360;7.582;2023-05-20T00:14:44;2.03;;;1.50;;
21677;SDS011;11000;50.360;7.582;2023-05-20T00:17:05;5.83;;;1.80;;
21677;SDS011;11000;50.360;7.582;2023-05-20T00:19:25;3.17;;;2.03;;
21677;SDS011;11000;50.360;7.582;2023-05-20T00:21:46;2.27;;;1.60;;
21677;SDS011;11000;50.360;7.582;2023-05-20T00:24:06;1.83;;;1.70;;
21677;SDS011;11000;50.360;7.582;2023-05-20T00:26:28;4.50;;;2.00;;
21677;SDS011;11000;50.360;7.582;2023-05-20T00:28:49;2.30;;;2.10;;
21677;SDS011;11000;50.360;7.582;2023-05-20T00:31:09;6.43;;;2.07;;
21677;SDS011;11000;50.360;7.582;2023-05-20T00:33:30;2.57;;;1.80;;
21677;SDS011;11000;50.360;7.582;2023-05-20T00:35:50;2.53;;;1.70;;
21677;SDS011;11000;50.360;7.582;2023-05-20T00:38:11;2.83;;;2.00;;
21677;SDS011;11000;50.360;7.582;2023-05-20T00:40:31;2.00;;;1.90;;
21677;SDS011;11000;50.360;7.582;2023-05-20T00:42:51;2.90;;;1.90;;
21677;SDS011;11000;50.360;7.582;2023-05-20T00:45:12;2.57;;;2.00;;
21677;SDS011;11000;50.360;7.582;2023-05-20T00:47:34;3.70;;;1.80;;
21677;SDS011;11000;50.360;7.582;2023-05-20T00:49:58;2.30;;;1.97;;
21677;SDS011;11000;50.360;7.582;2023-05-20T00:52:19;1.97;;;1.77;;
21677;SDS011;11000;50.360;7.582;2023-05-20T00:54:41;1.77;;;1.60;;
21677;SDS011;11000;50.360;7.582;2023-05-20T00:57:02;4.13;;;1.80;;
21677;SDS011;11000;50.360;7.582;2023-05-20T00:59:24;2.23;;;1.63;;
21677;SDS011;11000;50.360;7.582;2023-05-20T01:01:45;2.83;;;1.67;;
21677;SDS011;11000;50.360;7.582;2023-05-20T01:04:06;2.53;;;1.80;;
21677;SDS011;11000;50.360;7.582;2023-05-20T01:06:27;2.67;;;1.97;;
21677;SDS011;11000;50.360;7.582;2023-05-20T01:08:48;2.50;;;1.70;;
21677;SDS011;11000;50.360;7.582;2023-05-20T01:13:44;2.47;;;1.87;;
21677;SDS011;11000;50.360;7.582;2023-05-20T01:16:06;2.00;;;1.77;;
21677;SDS011;11000;50.360;7.582;2023-05-20T01:18:29;1.97;;;1.77;;
21677;SDS011;11000;50.360;7.582;2023-05-20T01:20:52;4.73;;;1.60;;
21677;SDS011;11000;50.360;7.582;2023-05-20T01:23:14;2.43;;;1.40;;
21677;SDS011;11000;50.360;7.582;2023-05-20T01:25:36;2.67;;;1.80;;
21677;SDS011;11000;50.360;7.582;2023-05-20T01:27:56;3.20;;;2.10;;
21677;SDS011;11000;50.360;7.582;2023-05-20T01:30:17;2.03;;;1.43;;
21677;SDS011;11000;50.360;7.582;2023-05-20T01:32:40;2.17;;;1.83;;
21677;SDS011;11000;50.360;7.582;2023-05-20T01:35:03;4.37;;;1.67;;
21677;SDS011;11000;50.360;7.582;2023-05-20T01:37:25;7.17;;;2.20;;
21677;SDS011;11000;50.360;7.582;2023-05-20T01:39:48;3.83;;;1.80;;
21677;SDS011;11000;50.360;7.582;2023-05-20T01:42:10;2.03;;;1.90;;
21677;SDS011;11000;50.360;7.582;2023-05-20T01:44:33;2.73;;;1.90;;
21677;SDS011;11000;50.360;7.582;2023-05-20T01:46:53;3.40;;;1.73;;
21677;SDS011;11000;50.360;7.582;2023-05-20T01:49:14;2.40;;;1.60;;
21677;SDS011;11000;50.360;7.582;2023-05-20T01:51:34;3.23;;;2.30;;
21677;SDS011;11000;50.360;7.582;2023-05-20T01:53:56;3.70;;;1.87;;
21677;SDS011;11000;50.360;7.582;2023-05-20T01:56:16;2.20;;;1.97;;
21677;SDS011;11000;50.360;7.582;2023-05-20T01:58:37;2.87;;;1.70;;
21677;SDS011;11000;50.360;7.582;2023-05-20T02:00:57;2.70;;;2.03;;
21677;SDS011;11000;50.360;7.582;2023-05-20T02:03:18;2.50;;;2.30;;
21677;SDS011;11000;50.360;7.582;2023-05-20T02:05:39;2.40;;;1.70;;
21677;SDS011;11000;50.360;7.582;2023-05-20T02:08:00;3.90;;;1.83;;
21677;SDS011;11000;50.360;7.582;2023-05-20T02:10:21;2.30;;;1.90;;
21677;SDS011;11000;50.360;7.582;2023-05-20T02:12:43;2.27;;;1.50;;
21677;SDS011;11000;50.360;7.582;2023-05-20T02:15:03;2.60;;;1.77;;
21677;SDS011;11000;50.360;7.582;2023-05-20T02:17:25;2.67;;;1.63;;
21677;SDS011;11000;50.360;7.582;2023-05-20T02:19:45;2.50;;;1.73;;
21677;SDS011;11000;50.360;7.582;2023-05-20T02:22:06;3.50;;;1.70;;
21677;SDS011;11000;50.360;7.582;2023-05-20T02:24:27;2.83;;;1.80;;
21677;SDS011;11000;50.360;7.582;2023-05-20T02:26:47;2.40;;;1.80;;
21677;SDS011;11000;50.360;7.582;2023-05-20T02:29:13;2.40;;;1.70;;
21677;SDS011;11000;50.360;7.582;2023-05-20T02:31:34;2.20;;;2.00;;
21677;SDS011;11000;50.360;7.582;2023-05-20T02:33:54;2.90;;;2.00;;
21677;SDS011;11000;50.360;7.582;2023-05-20T02:36:15;3.73;;;2.00;;
21677;SDS011;11000;50.360;7.582;2023-05-20T02:38:36;3.03;;;1.80;;
21677;SDS011;11000;50.360;7.582;2023-05-20T02:40:56;7.40;;;2.33;;
21677;SDS011;11000;50.360;7.582;2023-05-20T02:43:18;2.23;;;2.10;;
21677;SDS011;11000;50.360;7.582;2023-05-20T02:45:39;2.93;;;1.97;;
21677;SDS011;11000;50.360;7.582;2023-05-20T02:47:59;3.57;;;2.20;;
21677;SDS011;11000;50.360;7.582;2023-05-20T02:50:20;4.10;;;2.10;;
21677;SDS011;11000;50.360;7.582;2023-05-20T02:52:40;3.20;;;2.00;;
21677;SDS011;11000;50.360;7.582;2023-05-20T02:55:01;2.60;;;1.93;;
21677;SDS011;11000;50.360;7.582;2023-05-20T02:57:22;2.77;;;2.00;;
21677;SDS011;11000;50.360;7.582;2023-05-20T02:59:43;3.27;;;2.10;;
21677;SDS011;11000;50.360;7.582;2023-05-20T03:02:03;3.17;;;2.10;;
21677;SDS011;11000;50.360;7.582;2023-05-20T03:04:24;2.80;;;2.27;;
21677;SDS011;11000;50.360;7.582;2023-05-20T03:06:46;3.27;;;2.20;;
21677;SDS011;11000;50.360;7.582;2023-05-20T03:09:06;4.30;;;2.00;;
21677;SDS011;11000;50.360;7.582;2023-05-20T03:11:27;2.10;;;1.77;;
21677;SDS011;11000;50.360;7.582;2023-05-20T03:13:47;2.80;;;1.80;;
21677;SDS011;11000;50.360;7.582;2023-05-20T03:16:09;7.23;;;2.23;;
21677;SDS011;11000;50.360;7.582;2023-05-20T03:18:31;2.77;;;2.17;;
21677;SDS011;11000;50.360;7.582;2023-05-20T03:20:52;2.13;;;1.93;;
21677;SDS011;11000;50.360;7.582;2023-05-20T03:23:12;2.00;;;1.80;;
21677;SDS011;11000;50.360;7.582;2023-05-20T03:25:33;2.67;;;2.27;;
21677;SDS011;11000;50.360;7.582;2023-05-20T03:27:54;4.83;;;2.40;;
21677;SDS011;11000;50.360;7.582;2023-05-20T03:30:15;3.00;;;2.00;;
21677;SDS011;11000;50.360;7.582;2023-05-20T03:32:35;2.63;;;1.77;;
21677;SDS011;11000;50.360;7.582;2023-05-20T03:34:56;3.03;;;2.10;;
21677;SDS011;11000;50.360;7.582;2023-05-20T03:37:17;2.07;;;1.70;;
21677;SDS011;11000;50.360;7.582;2023-05-20T03:39:37;3.43;;;2.17;;
21677;SDS011;11000;50.360;7.582;2023-05-20T03:41:58;2.87;;;1.90;;
21677;SDS011;11000;50.360;7.582;2023-05-20T03:44:18;4.37;;;2.23;;
21677;SDS011;11000;50.360;7.582;2023-05-20T03:46:39;4.13;;;2.10;;
21677;SDS011;11000;50.360;7.582;2023-05-20T03:48:59;4.33;;;2.10;;
21677;SDS011;11000;50.360;7.582;2023-05-20T03:51:23;3.93;;;2.33;;
21677;SDS011;11000;50.360;7.582;2023-05-20T03:53:43;4.73;;;2.03;;
21677;SDS011;11000;50.360;7.582;2023-05-20T03:56:04;3.63;;;2.27;;
21677;SDS011;11000;50.360;7.582;2023-05-20T03:58:25;4.03;;;2.33;;
21677;SDS011;11000;50.360;7.582;2023-05-20T04:00:48;3.90;;;2.23;;
21677;SDS011;11000;50.360;7.582;2023-05-20T04:03:08;2.97;;;1.90;;
21677;SDS011;11000;50.360;7.582;2023-05-20T04:05:29;4.57;;;2.47;;
21677;SDS011;11000;50.360;7.582;2023-05-20T04:07:50;2.77;;;2.17;;
21677;SDS011;11000;50.360;7.582;2023-05-20T04:10:10;2.83;;;1.90;;
21677;SDS011;11000;50.360;7.582;2023-05-20T04:12:31;7.53;;;2.70;;
21677;SDS011;11000;50.360;7.582;2023-05-20T04:14:52;3.17;;;2.23;;
21677;SDS011;11000;50.360;7.582;2023-05-20T04:17:14;3.40;;;2.10;;
21677;SDS011;11000;50.360;7.582;2023-05-20T04:19:35;4.90;;;2.13;;
21677;SDS011;11000;50.360;7.582;2023-05-20T04:21:57;3.70;;;2.47;;
21677;SDS011;11000;50.360;7.582;2023-05-20T04:24:17;2.57;;;2.37;;
21677;SDS011;11000;50.360;7.582;2023-05-20T04:26:38;2.93;;;2.47;;
21677;SDS011;11000;50.360;7.582;2023-05-20T04:28:58;4.30;;;2.17;;
21677;SDS011;11000;50.360;7.582;2023-05-20T04:31:23;5.07;;;2.17;;
21677;SDS011;11000;50.360;7.582;2023-05-20T04:33:45;4.23;;;2.23;;
21677;SDS011;11000;50.360;7.582;2023-05-20T04:36:08;3.40;;;1.93;;
21677;SDS011;11000;50.360;7.582;2023-05-20T04:38:30;4.57;;;2.10;;
21677;SDS011;11000;50.360;7.582;2023-05-20T04:40:51;3.13;;;2.50;;
21677;SDS011;11000;50.360;7.582;2023-05-20T04:43:12;4.23;;;2.50;;
21677;SDS011;11000;50.360;7.582;2023-05-20T04:45:33;3.00;;;2.70;;
21677;SDS011;11000;50.360;7.582;2023-05-20T04:47:55;5.53;;;2.63;;
21677;SDS011;11000;50.360;7.582;2023-05-20T04:50:16;2.50;;;2.30;;
21677;SDS011;11000;50.360;7.582;2023-05-20T04:52:37;3.57;;;2.20;;
21677;SDS011;11000;50.360;7.582;2023-05-20T04:54:58;3.53;;;2.67;;
21677;SDS011;11000;50.360;7.582;2023-05-20T04:57:20;4.27;;;2.17;;
21677;SDS011;11000;50.360;7.582;2023-05-20T04:59:41;6.33;;;2.50;;
21677;SDS011;11000;50.360;7.582;2023-05-20T05:02:02;3.17;;;2.13;;
21677;SDS011;11000;50.360;7.582;2023-05-20T05:04:22;4.53;;;2.60;;
21677;SDS011;11000;50.360;7.582;2023-05-20T05:06:43;4.43;;;2.43;;
21677;SDS011;11000;50.360;7.582;2023-05-20T05:09:03;2.43;;;2.23;;
21677;SDS011;11000;50.360;7.582;2023-05-20T05:11:24;3.83;;;2.40;;
21677;SDS011;11000;50.360;7.582;2023-05-20T05:13:45;3.67;;;2.37;;
21677;SDS011;11000;50.360;7.582;2023-05-20T05:16:05;2.90;;;2.60;;
21677;SDS011;11000;50.360;7.582;2023-05-20T05:18:26;2.70;;;2.20;;
21677;SDS011;11000;50.360;7.582;2023-05-20T05:20:46;4.67;;;2.47;;
21677;SDS011;11000;50.360;7.582;2023-05-20T05:23:07;2.67;;;2.40;;
21677;SDS011;11000;50.360;7.582;2023-05-20T05:25:27;4.17;;;2.50;;
21677;SDS011;11000;50.360;7.582;2023-05-20T05:27:48;2.97;;;2.43;;
21677;SDS011;11000;50.360;7.582;2023-05-20T05:30:09;3.20;;;2.40;;
21677;SDS011;11000;50.360;7.582;2023-05-20T05:32:30;3.90;;;2.70;;
21677;SDS011;11000;50.360;7.582;2023-05-20T05:34:51;4.30;;;2.77;;
21677;SDS011;11000;50.360;7.582;2023-05-20T05:37:11;3.60;;;2.20;;
21677;SDS011;11000;50.360;7.582;2023-05-20T05:39:32;3.60;;;2.53;;
21677;SDS011;11000;50.360;7.582;2023-05-20T05:41:53;4.03;;;2.57;;
21677;SDS011;11000;50.360;7.582;2023-05-20T05:44:15;4.13;;;2.50;;
21677;SDS011;11000;50.360;7.582;2023-05-20T05:46:35;2.87;;;2.33;;
21677;SDS011;11000;50.360;7.582;2023-05-20T05:48:56;3.30;;;2.60;;
21677;SDS011;11000;50.360;7.582;2023-05-20T05:51:17;3.33;;;2.23;;
21677;SDS011;11000;50.360;7.582;2023-05-20T05:53:38;5.23;;;2.60;;
21677;SDS011;11000;50.360;7.582;2023-05-20T05:55:59;3.17;;;2.27;;
21677;SDS011;11000;50.360;7.582;2023-05-20T05:58:19;4.60;;;2.67;;
21677;SDS011;11000;50.360;7.582;2023-05-20T06:00:40;5.60;;;3.10;;
21677;SDS011;11000;50.360;7.582;2023-05-20T06:03:00;4.63;;;2.77;;
21677;SDS011;11000;50.360;7.582;2023-05-20T06:05:21;4.77;;;2.53;;
21677;SDS011;11000;50.360;7.582;2023-05-20T06:07:41;5.17;;;2.63;;
21677;SDS011;11000;50.360;7.582;2023-05-20T06:10:02;6.07;;;2.67;;
21677;SDS011;11000;50.360;7.582;2023-05-20T06:12:23;4.77;;;2.50;;
21677;SDS011;11000;50.360;7.582;2023-05-20T06:14:43;5.67;;;2.23;;
21677;SDS011;11000;50.360;7.582;2023-05-20T06:17:04;5.27;;;2.60;;
21677;SDS011;11000;50.360;7.582;2023-05-20T06:19:24;3.67;;;3.00;;
21677;SDS011;11000;50.360;7.582;2023-05-20T06:21:45;4.97;;;2.20;;
21677;SDS011;11000;50.360;7.582;2023-05-20T06:24:05;3.30;;;2.60;;
21677;SDS011;11000;50.360;7.582;2023-05-20T06:26:26;3.40;;;2.70;;
21677;SDS011;11000;50.360;7.582;2023-05-20T06:28:46;3.90;;;2.80;;
21677;SDS011;11000;50.360;7.582;2023-05-20T06:31:07;6.23;;;3.40;;
21677;SDS011;11000;50.360;7.582;2023-05-20T06:33:27;5.40;;;3.43;;
21677;SDS011;11000;50.360;7.582;2023-05-20T06:35:48;5.93;;;3.87;;
21677;SDS011;11000;50.360;7.582;2023-05-20T06:38:09;3.63;;;2.97;;
21677;SDS011;11000;50.360;7.582;2023-05-20T06:40:29;4.20;;;3.13;;
21677;SDS011;11000;50.360;7.582;2023-05-20T06:42:50;3.23;;;2.93;;
21677;SDS011;11000;50.360;7.582;2023-05-20T06:45:12;3.63;;;3.23;;
21677;SDS011;11000;50.360;7.582;2023-05-20T06:47:32;3.50;;;2.57;;
21677;SDS011;11000;50.360;7.582;2023-05-20T06:49:55;5.90;;;3.17;;
21677;SDS011;11000;50.360;7.582;2023-05-20T06:52:15;3.37;;;2.67;;
21677;SDS011;11000;50.360;7.582;2023-05-20T06:54:38;8.33;;;2.60;;
21677;SDS011;11000;50.360;7.582;2023-05-20T06:57:00;3.10;;;2.53;;
21677;SDS011;11000;50.360;7.582;2023-05-20T06:59:20;4.13;;;2.70;;
21677;SDS011;11000;50.360;7.582;2023-05-20T07:01:41;3.50;;;2.93;;
21677;SDS011;11000;50.360;7.582;2023-05-20T07:04:01;4.50;;;3.00;;
21677;SDS011;11000;50.360;7.582;2023-05-20T07:06:22;3.20;;;2.73;;
21677;SDS011;11000;50.360;7.582;2023-05-20T07:08:44;3.27;;;2.70;;
21677;SDS011;11000;50.360;7.582;2023-05-20T07:11:04;2.57;;;2.37;;
21677;SDS011;11000;50.360;7.582;2023-05-20T07:13:25;3.27;;;2.50;;
21677;SDS011;11000;50.360;7.582;2023-05-20T07:15:45;5.57;;;3.10;;
21677;SDS011;11000;50.360;7.582;2023-05-20T07:18:06;3.87;;;2.70;;
21677;SDS011;11000;50.360;7.582;2023-05-20T07:20:27;4.93;;;2.33;;
21677;SDS011;11000;50.360;7.582;2023-05-20T07:22:47;5.77;;;2.57;;
21677;SDS011;11000;50.360;7.582;2023-05-20T07:25:09;3.17;;;2.70;;
21677;SDS011;11000;50.360;7.582;2023-05-20T07:27:30;3.73;;;3.27;;
21677;SDS011;11000;50.360;7.582;2023-05-20T07:29:50;4.07;;;3.67;;
21677;SDS011;11000;50.360;7.582;2023-05-20T07:32:11;3.87;;;2.93;;
21677;SDS011;11000;50.360;7.582;2023-05-20T07:34:31;2.70;;;2.50;;
21677;SDS011;11000;50.360;7.582;2023-05-20T07:36:52;3.77;;;3.13;;
21677;SDS011;11000;50.360;7.582;2023-05-20T07:39:13;6.17;;;3.63;;
21677;SDS011;11000;50.360;7.582;2023-05-20T07:41:35;4.63;;;2.87;;
21677;SDS011;11000;50.360;7.582;2023-05-20T07:43:56;4.80;;;3.40;;
21677;SDS011;11000;50.360;7.582;2023-05-20T07:46:17;3.63;;;3.07;;
21677;SDS011;11000;50.360;7.582;2023-05-20T07:48:38;3.80;;;3.40;;
21677;SDS011;11000;50.360;7.582;2023-05-20T07:50:59;5.20;;;3.60;;
21677;SDS011;11000;50.360;7.582;2023-05-20T07:53:21;3.20;;;2.90;;
21677;SDS011;11000;50.360;7.582;2023-05-20T07:55:42;3.80;;;3.23;;
21677;SDS011;11000;50.360;7.582;2023-05-20T07:58:02;4.57;;;3.30;;
21677;SDS011;11000;50.360;7.582;2023-05-20T08:00:24;9.00;;;4.30;;
21677;SDS011;11000;50.360;7.582;2023-05-20T08:02:44;6.27;;;4.03;;
21677;SDS011;11000;50.360;7.582;2023-05-20T08:05:07;4.53;;;4.10;;
21677;SDS011;11000;50.360;7.582;2023-05-20T08:07:28;4.50;;;4.10;;
21677;SDS011;11000;50.360;7.582;2023-05-20T08:09:48;5.17;;;4.00;;
21677;SDS011;11000;50.360;7.582;2023-05-20T08:12:10;5.20;;;4.10;;
21677;SDS011;11000;50.360;7.582;2023-05-20T08:14:31;4.03;;;3.63;;
21677;SDS011;11000;50.360;7.582;2023-05-20T08:16:51;4.57;;;3.73;;
21677;SDS011;11000;50.360;7.582;2023-05-20T08:19:12;4.67;;;3.87;;
21677;SDS011;11000;50.360;7.582;2023-05-20T08:21:33;4.63;;;4.07;;
21677;SDS011;11000;50.360;7.582;2023-05-20T08:23:54;5.00;;;4.37;;
21677;SDS011;11000;50.360;7.582;2023-05-20T08:26:14;5.30;;;3.67;;
21677;SDS011;11000;50.360;7.582;2023-05-20T08:28:35;5.83;;;4.13;;
21677;SDS011;11000;50.360;7.582;2023-05-20T08:31:02;4.30;;;3.90;;
21677;SDS011;11000;50.360;7.582;2023-05-20T08:33:22;5.57;;;4.27;;
21677;SDS011;11000;50.360;7.582;2023-05-20T08:35:43;4.47;;;4.07;;
21677;SDS011;11000;50.360;7.582;2023-05-20T08:38:05;5.77;;;4.20;;
21677;SDS011;11000;50.360;7.582;2023-05-20T08:40:25;6.10;;;4.23;;
21677;SDS011;11000;50.360;7.582;2023-05-20T08:42:47;7.13;;;4.10;;
21677;SDS011;11000;50.360;7.582;2023-05-20T08:45:09;4.67;;;4.20;;
21677;SDS011;11000;50.360;7.582;2023-05-20T08:47:32;8.43;;;4.47;;
21677;SDS011;11000;50.360;7.582;2023-05-20T08:49:53;4.83;;;3.90;;
21677;SDS011;11000;50.360;7.582;2023-05-20T08:52:13;4.90;;;3.80;;
21677;SDS011;11000;50.360;7.582;2023-05-20T08:54:42;6.37;;;4.17;;
21677;SDS011;11000;50.360;7.582;2023-05-20T08:57:04;4.97;;;4.30;;
21677;SDS011;11000;50.360;7.582;2023-05-20T08:59:25;5.73;;;4.23;;
21677;SDS011;11000;50.360;7.582;2023-05-20T09:01:46;5.13;;;4.43;;
21677;SDS011;11000;50.360;7.582;2023-05-20T09:04:07;4.60;;;4.20;;
21677;SDS011;11000;50.360;7.582;2023-05-20T09:06:28;5.33;;;4.63;;
21677;SDS011;11000;50.360;7.582;2023-05-20T09:08:49;4.77;;;4.30;;
21677;SDS011;11000;50.360;7.582;2023-05-20T09:11:11;5.10;;;4.30;;
21677;SDS011;11000;50.360;7.582;2023-05-20T09:13:32;6.40;;;4.70;;
21677;SDS011;11000;50.360;7.582;2023-05-20T09:15:53;7.00;;;4.53;;
21677;SDS011;11000;50.360;7.582;2023-05-20T09:18:14;4.97;;;4.47;;
21677;SDS011;11000;50.360;7.582;2023-05-20T09:20:35;4.97;;;4.43;;
21677;SDS011;11000;50.360;7.582;2023-05-20T09:22:58;7.17;;;4.43;;
21677;SDS011;11000;50.360;7.582;2023-05-20T09:25:20;4.60;;;4.20;;
21677;SDS011;11000;50.360;7.582;2023-05-20T09:27:41;5.37;;;4.40;;
21677;SDS011;11000;50.360;7.582;2023-05-20T09:30:05;5.43;;;4.27;;
21677;SDS011;11000;50.360;7.582;2023-05-20T09:32:26;4.83;;;4.07;;
21677;SDS011;11000;50.360;7.582;2023-05-20T09:34:47;5.57;;;4.37;;
21677;SDS011;11000;50.360;7.582;2023-05-20T09:37:08;4.73;;;4.30;;
21677;SDS011;11000;50.360;7.582;2023-05-20T09:39:30;5.80;;;4.87;;
21677;SDS011;11000;50.360;7.582;2023-05-20T09:42:04;4.83;;;4.30;;
21677;SDS011;11000;50.360;7.582;2023-05-20T09:44:34;4.83;;;4.30;;
21677;SDS011;11000;50.360;7.582;2023-05-20T09:46:55;7.07;;;4.87;;
21677;SDS011;11000;50.360;7.582;2023-05-20T09:49:16;5.33;;;4.83;;
21677;SDS011;11000;50.360;7.582;2023-05-20T09:51:37;6.40;;;5.77;;
21677;SDS011;11000;50.360;7.582;2023-05-20T09:54:00;5.03;;;4.63;;
21677;SDS011;11000;50.360;7.582;2023-05-20T09:56:23;4.73;;;4.30;;
21677;SDS011;11000;50.360;7.582;2023-05-20T09:58:45;9.33;;;5.03;;
21677;SDS011;11000;50.360;7.582;2023-05-20T10:01:08;5.30;;;4.80;;
21677;SDS011;11000;50.360;7.582;2023-05-20T10:03:29;4.87;;;3.93;;
21677;SDS011;11000;50.360;7.582;2023-05-20T10:06:03;6.77;;;4.57;;
21677;SDS011;11000;50.360;7.582;2023-05-20T10:08:36;5.20;;;4.63;;
21677;SDS011;11000;50.360;7.582;2023-05-20T10:11:20;5.30;;;4.20;;
21677;SDS011;11000;50.360;7.582;2023-05-20T10:16:45;6.67;;;4.40;;
21677;SDS011;11000;50.360;7.582;2023-05-20T10:19:14;6.10;;;5.23;;
21677;SDS011;11000;50.360;7.582;2023-05-20T10:22:01;5.20;;;4.70;;
21677;SDS011;11000;50.360;7.582;2023-05-20T10:24:33;6.87;;;5.03;;
21677;SDS011;11000;50.360;7.582;2023-05-20T10:26:57;9.43;;;5.67;;
21677;SDS011;11000;50.360;7.582;2023-05-20T10:29:20;5.70;;;5.13;;
21677;SDS011;11000;50.360;7.582;2023-05-20T10:31:52;8.13;;;4.60;;
21677;SDS011;11000;50.360;7.582;2023-05-20T10:34:15;5.17;;;4.70;;
21677;SDS011;11000;50.360;7.582;2023-05-20T10:36:37;4.83;;;4.33;;
21677;SDS011;11000;50.360;7.582;2023-05-20T10:38:58;6.80;;;4.70;;
21677;SDS011;11000;50.360;7.582;2023-05-20T10:41:20;5.30;;;4.80;;
21677;SDS011;11000;50.360;7.582;2023-05-20T10:43:46;7.30;;;4.80;;
21677;SDS011;11000;50.360;7.582;2023-05-20T10:46:06;4.73;;;4.33;;
21677;SDS011;11000;50.360;7.582;2023-05-20T10:48:40;6.13;;;5.13;;
21677;SDS011;11000;50.360;7.582;2023-05-20T10:51:01;5.27;;;4.77;;
21677;SDS011;11000;50.360;7.582;2023-05-20T10:53:25;5.80;;;5.10;;
21677;SDS011;11000;50.360;7.582;2023-05-20T10:55:47;6.23;;;5.50;;
21677;SDS011;11000;50.360;7.582;2023-05-20T10:58:10;6.43;;;5.83;;
21677;SDS011;11000;50.360;7.582;2023-05-20T11:00:34;5.67;;;5.10;;
21677;SDS011;11000;50.360;7.582;2023-05-20T11:02:55;8.03;;;5.27;;
21677;SDS011;11000;50.360;7.582;2023-05-20T11:05:16;5.33;;;4.80;;
21677;SDS011;11000;50.360;7.582;2023-05-20T11:07:38;4.77;;;4.37;;
21677;SDS011;11000;50.360;7.582;2023-05-20T11:09:58;6.70;;;5.63;;
21677;SDS011;11000;50.360;7.582;2023-05-20T11:12:20;5.73;;;5.13;;
21677;SDS011;11000;50.360;7.582;2023-05-20T11:14:46;6.10;;;5.50;;
21677;SDS011;11000;50.360;7.582;2023-05-20T11:17:07;7.27;;;5.47;;
21677;SDS011;11000;50.360;7.582;2023-05-20T11:19:29;7.43;;;6.03;;
21677;SDS011;11000;50.360;7.582;2023-05-20T11:21:50;6.63;;;5.77;;
21677;SDS011;11000;50.360;7.582;2023-05-20T11:24:11;7.03;;;6.00;;
21677;SDS011;11000;50.360;7.582;2023-05-20T11:26:32;7.77;;;6.23;;
21677;SDS011;11000;50.360;7.582;2023-05-20T11:28:53;8.07;;;5.57;;
21677;SDS011;11000;50.360;7.582;2023-05-20T11:31:13;6.47;;;5.87;;
21677;SDS011;11000;50.360;7.582;2023-05-20T11:33:34;5.80;;;5.23;;
21677;SDS011;11000;50.360;7.582;2023-05-20T11:35:55;6.90;;;5.57;;
21677;SDS011;11000;50.360;7.582;2023-05-20T11:38:16;6.00;;;5.43;;
21677;SDS011;11000;50.360;7.582;2023-05-20T11:40:41;7.77;;;5.77;;
21677;SDS011;11000;50.360;7.582;2023-05-20T11:43:04;6.37;;;5.77;;
21677;SDS011;11000;50.360;7.582;2023-05-20T11:45:25;6.13;;;5.53;;
21677;SDS011;11000;50.360;7.582;2023-05-20T11:47:57;6.50;;;5.67;;
21677;SDS011;11000;50.360;7.582;2023-05-20T11:50:22;7.70;;;5.33;;
21677;SDS011;11000;50.360;7.582;2023-05-20T11:52:42;6.47;;;5.70;;
21677;SDS011;11000;50.360;7.582;2023-05-20T11:55:06;6.30;;;5.80;;
21677;SDS011;11000;50.360;7.582;2023-05-20T11:57:30;7.57;;;5.97;;
21677;SDS011;11000;50.360;7.582;2023-05-20T11:59:50;6.10;;;5.60;;
21677;SDS011;11000;50.360;7.582;2023-05-20T12:02:11;6.37;;;5.77;;
21677;SDS011;11000;50.360;7.582;2023-05-20T12:04:31;6.33;;;5.77;;
21677;SDS011;11000;50.360;7.582;2023-05-20T12:06:52;6.40;;;5.80;;
21677;SDS011;11000;50.360;7.582;2023-05-20T12:09:12;6.17;;;5.57;;
21677;SDS011;11000;50.360;7.582;2023-05-20T12:11:33;5.87;;;5.37;;
21677;SDS011;11000;50.360;7.582;2023-05-20T12:13:54;6.93;;;6.23;;
21677;SDS011;11000;50.360;7.582;2023-05-20T12:16:15;6.40;;;5.80;;
21677;SDS011;11000;50.360;7.582;2023-05-20T12:18:35;6.43;;;5.83;;
21677;SDS011;11000;50.360;7.582;2023-05-20T12:20:56;6.70;;;6.10;;
21677;SDS011;11000;50.360;7.582;2023-05-20T12:23:17;7.20;;;5.50;;
21677;SDS011;11000;50.360;7.582;2023-05-20T12:25:38;8.77;;;6.70;;
21677;SDS011;11000;50.360;7.582;2023-05-20T12:28:00;6.47;;;5.43;;
21677;SDS011;11000;50.360;7.582;2023-05-20T12:30:21;6.63;;;5.73;;
21677;SDS011;11000;50.360;7.582;2023-05-20T12:32:43;6.80;;;6.10;;
21677;SDS011;11000;50.360;7.582;2023-05-20T12:35:04;6.00;;;5.40;;
21677;SDS011;11000;50.360;7.582;2023-05-20T12:37:25;6.53;;;6.00;;
21677;SDS011;11000;50.360;7.582;2023-05-20T12:39:46;6.67;;;6.00;;
21677;SDS011;11000;50.360;7.582;2023-05-20T12:42:06;6.73;;;6.10;;
21677;SDS011;11000;50.360;7.582;2023-05-20T12:44:27;6.27;;;5.67;;
21677;SDS011;11000;50.360;7.582;2023-05-20T12:46:47;8.63;;;5.67;;
21677;SDS011;11000;50.360;7.582;2023-05-20T12:49:08;8.43;;;5.67;;
21677;SDS011;11000;50.360;7.582;2023-05-20T12:51:28;5.83;;;5.33;;
21677;SDS011;11000;50.360;7.582;2023-05-20T12:53:49;6.23;;;5.63;;
21677;SDS011;11000;50.360;7.582;2023-05-20T12:56:09;6.67;;;6.07;;
21677;SDS011;11000;50.360;7.582;2023-05-20T12:58:30;6.30;;;5.70;;
21677;SDS011;11000;50.360;7.582;2023-05-20T13:00:50;6.40;;;5.77;;
21677;SDS011;11000;50.360;7.582;2023-05-20T13:03:11;6.67;;;6.03;;
21677;SDS011;11000;50.360;7.582;2023-05-20T13:05:31;6.43;;;5.83;;
21677;SDS011;11000;50.360;7.582;2023-05-20T13:07:52;7.03;;;5.37;;
21677;SDS011;11000;50.360;7.582;2023-05-20T13:10:13;5.90;;;5.30;;
21677;SDS011;11000;50.360;7.582;2023-05-20T13:12:33;6.20;;;5.60;;
21677;SDS011;11000;50.360;7.582;2023-05-20T13:14:54;6.73;;;6.07;;
21677;SDS011;11000;50.360;7.582;2023-05-20T13:17:15;6.33;;;5.37;;
21677;SDS011;11000;50.360;7.582;2023-05-20T13:19:35;6.47;;;5.60;;
21677;SDS011;11000;50.360;7.582;2023-05-20T13:21:57;6.57;;;5.33;;
21677;SDS011;11000;50.360;7.582;2023-05-20T13:24:17;6.07;;;5.47;;
21677;SDS011;11000;50.360;7.582;2023-05-20T13:26:38;5.80;;;5.30;;
21677;SDS011;11000;50.360;7.582;2023-05-20T13:29:00;8.87;;;6.67;;
21677;SDS011;11000;50.360;7.582;2023-05-20T13:31:21;6.20;;;5.60;;
21677;SDS011;11000;50.360;7.582;2023-05-20T13:33:41;6.87;;;5.67;;
21677;SDS011;11000;50.360;7.582;2023-05-20T13:36:02;6.23;;;5.70;;
21677;SDS011;11000;50.360;7.582;2023-05-20T13:38:23;6.40;;;5.80;;
21677;SDS011;11000;50.360;7.582;2023-05-20T13:40:43;6.50;;;5.80;;
21677;SDS011;11000;50.360;7.582;2023-05-20T13:43:04;7.27;;;6.00;;
21677;SDS011;11000;50.360;7.582;2023-05-20T13:45:25;6.97;;;5.50;;
21677;SDS011;11000;50.360;7.582;2023-05-20T13:47:46;7.77;;;6.13;;
21677;SDS011;11000;50.360;7.582;2023-05-20T13:50:18;6.80;;;5.93;;
21677;SDS011;11000;50.360;7.582;2023-05-20T13:52:39;6.10;;;5.60;;
21677;SDS011;11000;50.360;7.582;2023-05-20T13:55:01;6.93;;;6.23;;
21677;SDS011;11000;50.360;7.582;2023-05-20T13:57:22;6.60;;;5.93;;
21677;SDS011;11000;50.360;7.582;2023-05-20T13:59:42;11.90;;;5.67;;
21677;SDS011;11000;50.360;7.582;2023-05-20T14:02:03;6.53;;;5.93;;
21677;SDS011;11000;50.360;7.582;2023-05-20T14:04:24;6.33;;;5.73;;
21677;SDS011;11000;50.360;7.582;2023-05-20T14:06:45;6.37;;;5.77;;
21677;SDS011;11000;50.360;7.582;2023-05-20T14:09:05;6.27;;;5.67;;
21677;SDS011;11000;50.360;7.582;2023-05-20T14:11:27;6.53;;;5.83;;
21677;SDS011;11000;50.360;7.582;2023-05-20T14:13:48;6.93;;;6.23;;
21677;SDS011;11000;50.360;7.582;2023-05-20T14:16:08;7.83;;;5.77;;
21677;SDS011;11000;50.360;7.582;2023-05-20T14:18:29;6.87;;;5.93;;